In Rescue
 
Open Full Screen Window  High Contrast Mode
Wind Gusting 00 knots
09
July 22, 2019 4:11 PM CDT
Weather Information
Wind Direction
  020 °
Wind Speed
  09 kt (10 mph)
Wind Gust
  00 kt (0 mph)
Variable Wind
340°
040°
Altimeter
30.22 in
Visibility
10 SM
Temperature
25° C
77° F
Dewpoint
05° C
41° F
Humidity
28%
1hr Rain Fall
00.00 in.
24hr Rain Fall
00.00 in.
Sky Condition
Scattered @ 5,500 ft
VFR

METAR KAUM 222111Z AUTO 02009KT 343V043 10SM SCT055 25/05 A3022 RMK AO2

FAA Disclaimer: The data displayed is for advisory purposes only and is not to be used for flight planning or operations.